Aviation Digital Data Service (ADDS)

Output produced by METARs form (2323 UTC 29 April 2017)
found at http://aviationweather.gov/adds/metars/
 
KPWM 292320Z 3000/3024 26012G20KT P6SM FEW070 BKN200 
     FM300100 31009KT P6SM FEW250 
     FM301700 14005KT P6SM BKN050 
     FM302100 17010KT P6SM OVC100